Donaldsonville, Louisiana
Current Conditions -  °F | °C
As of 1:15 PM on Saturday 25 Oct 2014 (Local Time) from KL38 Reporting Station
Clear Clear  
Wind Chill: 77°   Ceiling: Unl
Heat Index: 78°   Visibility: 10mi
Dew Point: 55°   Wind: 0mph
Humidity: 47%   Direction: NA
Pressure: 30.13"   Gusts: NA
Location:  30.11°N, 90.98°W
Report Text: KL38 251815Z AUTO 00000KT 10SM CLR 25/13 A3013 RMK AO2 T02480127
Loading
Personal Weather Stations






























Interactive Weather Map
Tropical Storm Tracking
New forecast layout! Learn more

10-Day Weather Forecast

Advertisements
Track Severe Weather on mobile